Nearby METAR Reports

 

KLXT - Lees Summit Muni, Missouri, USA
Distance from station: E 5mi, 9km
Updated: Sun, 20-Apr-2014 10:53pm CDT
Overcast
Overcast
 Wind from S
Wind: S 6 mph , 9 km/h
Temperature: 66°F , 19°C
Dew Point: 54°F , 12°C
Humidity: 64%
Barometer: 30.03 inHg , 1016.9 hPa
Clouds: Overcast
Visibility: 10 miles , 16 km
Cloud details: Overcast 11000 ft
2014/04/21 03:53 KLXT 210353Z AUTO 19005KT 10SM OVC110 19/12 A3003 RMK AO2 SLP163 T01940117
KMKC - Kansas City/Dntn, Missouri, USA
Distance from station: NW 12mi, 19km
Updated: Sun, 20-Apr-2014 10:54pm CDT
Light rain, Overcast
Light rain, Overcast
 Wind from S
Wind: S 9 mph , 15 km/h
Temperature: 68°F , 20°C
Dew Point: 54°F , 12°C
Humidity: 60%
Barometer: 30.01 inHg , 1016.3 hPa
Summary: Light rain
Clouds: Overcast
Visibility: 10 miles , 16 km
Cloud details: Overcast 10000 ft
2014/04/21 03:54 KMKC 210354Z 18008KT 10SM -RA OVC100 20/12 A3001 RMK AO2 RAB41 SLP157 P0000 T02000122
 
KIXD - Olathe/Industria, Kansas, USA
Distance from station: WSW 25mi, 41km
Updated: Sun, 20-Apr-2014 10:53pm CDT
Overcast
Overcast
 Wind from SSE
Wind: SSE 7 mph , 11 km/h
Temperature: 66°F , 19°C
Dew Point: 54°F , 12°C
Humidity: 64%
Barometer: 30.03 inHg , 1016.9 hPa
Clouds: Overcast
Visibility: 10 miles , 16 km
Cloud details: Overcast 9000 ft
2014/04/21 03:53 KIXD 210353Z AUTO 15006KT 10SM OVC090 19/12 A3003 RMK AO2 SLP161 T01890117
KMCI - Kansas City/Intl, Missouri, USA
Distance from station: NW 26mi, 42km
Updated: Sun, 20-Apr-2014 10:53pm CDT
Overcast
Overcast
 Wind from S
Wind: S 8 mph , 13 km/h
Temperature: 64°F , 18°C
Dew Point: 55°F , 13°C
Humidity: 73%
Barometer: 30.02 inHg , 1016.6 hPa
Clouds: Overcast
Visibility: 10 miles , 16 km
Cloud details: Few Clouds 8000 ft
Overcast 10000 ft
2014/04/21 03:53 KMCI 210353Z 19007KT 10SM FEW080 OVC100 18/13 A3002 RMK AO2 SLP158 T01780128
 
KRCM - Warrensburg Skyh, Missouri, USA
Distance from station: ESE 38mi, 62km
Updated: Sun, 20-Apr-2014 11:15pm CDT
Clear
Clear
 Wind from S
Wind: S 3 mph , 6 km/h
Barometer: 30.02 inHg , 1016.6 hPa
Clouds: Clear
Visibility: 10 miles , 16 km
2014/04/21 04:15 KRCM 210415Z AUTO 18003KT 10SM CLR A3002 RMK AO2
KLWC - Lawrence, Kansas, USA
Distance from station: W 40mi, 65km
Updated: Sun, 20-Apr-2014 10:52pm CDT
Overcast
Overcast
 Wind from ESE
Wind: ESE 6 mph , 9 km/h
Temperature: 64°F , 18°C
Dew Point: 55°F , 13°C
Humidity: 73%
Barometer: 30.02 inHg , 1016.6 hPa
Clouds: Overcast
Visibility: 10 miles , 16 km
Cloud details: Overcast 9000 ft
2014/04/21 03:52 KLWC 210352Z AUTO 11005KT 10SM OVC090 18/13 A3002 RMK AO2 RAB05E14 SLP158 P0000 T01830133
 
KSZL - Whiteman Afb, Missouri, USA
Distance from station: ESE 53mi, 86km
Updated: Sun, 20-Apr-2014 10:58pm CDT
Partly cloudy
Partly cloudy
 Wind from SSW
Wind: SSW 5 mph , 7 km/h
Temperature: 64°F , 18°C
Dew Point: 52°F , 11°C
Humidity: 64%
Barometer: 30.03 inHg , 1016.9 hPa
Clouds: Partly cloudy
Visibility: 10 miles , 16 km
Cloud details: Partly cloudy 16000 ft
2014/04/21 03:58 KSZL 210358Z AUTO 20004KT 10SM SCT160 18/11 A3003 RMK AO2 SLP167 T01820108
KSTJ - St. Joseph, Missouri, USA
Distance from station: NNW 59mi, 95km
Updated: Sun, 20-Apr-2014 10:53pm CDT
Clear
Clear
 Wind from S
Wind: S 3 mph , 6 km/h
Temperature: 64°F , 18°C
Dew Point: 55°F , 13°C
Humidity: 73%
Barometer: 30.01 inHg , 1016.3 hPa
Clouds: Clear
Visibility: 10 miles , 16 km
2014/04/21 03:53 KSTJ 210353Z AUTO 18003KT 10SM CLR 18/13 A3001 RMK AO2 SLP157 T01830128
 
KGLY - Clinton, Missouri, USA
Distance from station: SE 61mi, 98km
Updated: Sun, 20-Apr-2014 11:15pm CDT
Clear
Clear
 Wind from calm
Wind: Calm
Temperature: 63°F , 17°C
Dew Point: 55°F , 13°C
Humidity: 77%
Barometer: 30.04 inHg , 1017.3 hPa
Clouds: Clear
Visibility: 8 miles , 13 km
2014/04/21 04:15 KGLY 210415Z AUTO 00000KT 8SM CLR 17/13 A3004 RMK AO2
KFOE - Topeka/Forbes, Kansas, USA
Distance from station: W 64mi, 103km
Updated: Sun, 20-Apr-2014 10:53pm CDT
Overcast
Overcast
 Wind from ESE
Wind: ESE 6 mph , 9 km/h
Temperature: 64°F , 18°C
Dew Point: 55°F , 13°C
Humidity: 73%
Barometer: 30.01 inHg , 1016.3 hPa
Clouds: Overcast
Visibility: 10 miles , 16 km
Cloud details: Overcast 8500 ft
2014/04/21 03:53 KFOE 210353Z AUTO 11005KT 10SM OVC085 18/13 A3001 RMK AO2 SLP154 T01780128
 
KDMO - Sedalia, Missouri, USA
Distance from station: ESE 72mi, 116km
Updated: Sun, 20-Apr-2014 10:53pm CDT
Clear
Clear
 Wind from WSW
Wind: WSW 5 mph , 7 km/h
Temperature: 66°F , 19°C
Dew Point: 54°F , 12°C
Humidity: 64%
Barometer: 30.04 inHg , 1017.3 hPa
Clouds: Clear
Visibility: 10 miles , 16 km
2014/04/21 03:53 KDMO 210353Z AUTO 24004KT 10SM CLR 19/12 A3004 RMK AO2 SLP167 T01940122
KCDJ - Chillicothe, Missouri, USA
Distance from station: NE 74mi, 120km
Updated: Sun, 20-Apr-2014 10:52pm CDT

 Wind from SSW
Wind: SSW 6 mph , 9 km/h
Temperature: 70°F , 21°C
Dew Point: 52°F , 11°C
Humidity: 53%
Barometer: 30.02 inHg , 1016.6 hPa
2014/04/21 03:52 KCDJ 210352Z AUTO 20005KT 21/11 A3002 RMK AO1 SLP157 T02110111 $
 
KFNB - Falls City/Brenn, Nebraska, USA
Distance from station: NW 96mi, 154km
Updated: Sun, 20-Apr-2014 10:53pm CDT
Light rain, Overcast
Light rain, Overcast
 Wind from SSW
Wind: SSW 14 mph , 22 km/h
Temperature: 64°F , 18°C
Dew Point: 59°F , 15°C
Humidity: 83%
Barometer: 29.98 inHg , 1015.2 hPa
Summary: Light rain
Clouds: Overcast
Visibility: 10 miles , 16 km
Cloud details: Overcast 9500 ft
2014/04/21 03:53 KFNB 210353Z AUTO 20012KT 10SM -RA OVC095 18/15 A2998 RMK AO2 SLP147 P0001 T01830150
KVER - Boonville, Missouri, USA
Distance from station: E 96mi, 154km
Updated: Sun, 20-Apr-2014 11:15pm CDT
Clear
Clear
 Wind from calm
Wind: Calm
Temperature: 68°F , 20°C
Dew Point: 50°F , 10°C
Humidity: 53%
Barometer: 30.02 inHg , 1016.6 hPa
Clouds: Clear
Visibility: 10 miles , 16 km
2014/04/21 04:15 KVER 210415Z AUTO 00000KT 10SM CLR 20/10 A3002 RMK AO2 T02010102